sensor_id;sensor_type;location;lat;lon;timestamp;P1;durP1;ratioP1;P2;durP2;ratioP2
7881;SDS011;3986;41.884;23.466;2022-12-29T00:00:06;106.93;;;85.37;;
7881;SDS011;3986;41.884;23.466;2022-12-29T00:02:34;112.73;;;91.67;;
7881;SDS011;3986;41.884;23.466;2022-12-29T00:05:01;106.80;;;87.70;;
7881;SDS011;3986;41.884;23.466;2022-12-29T00:07:28;105.40;;;90.47;;
7881;SDS011;3986;41.884;23.466;2022-12-29T00:09:55;105.77;;;92.33;;
7881;SDS011;3986;41.884;23.466;2022-12-29T00:12:21;110.90;;;91.17;;
7881;SDS011;3986;41.884;23.466;2022-12-29T00:14:49;117.67;;;102.23;;
7881;SDS011;3986;41.884;23.466;2022-12-29T00:17:33;111.80;;;96.60;;
7881;SDS011;3986;41.884;23.466;2022-12-29T00:20:00;108.03;;;95.70;;
7881;SDS011;3986;41.884;23.466;2022-12-29T00:22:44;116.27;;;91.53;;
7881;SDS011;3986;41.884;23.466;2022-12-29T00:25:28;102.77;;;90.27;;
7881;SDS011;3986;41.884;23.466;2022-12-29T00:28:13;122.20;;;96.83;;
7881;SDS011;3986;41.884;23.466;2022-12-29T00:30:59;127.50;;;104.67;;
7881;SDS011;3986;41.884;23.466;2022-12-29T00:33:44;124.17;;;97.77;;
7881;SDS011;3986;41.884;23.466;2022-12-29T00:36:29;118.10;;;96.93;;
7881;SDS011;3986;41.884;23.466;2022-12-29T00:38:59;117.80;;;101.20;;
7881;SDS011;3986;41.884;23.466;2022-12-29T00:41:54;116.60;;;96.40;;
7881;SDS011;3986;41.884;23.466;2022-12-29T00:44:38;122.70;;;103.80;;
7881;SDS011;3986;41.884;23.466;2022-12-29T00:47:06;125.93;;;104.93;;
7881;SDS011;3986;41.884;23.466;2022-12-29T00:49:33;144.67;;;121.80;;
7881;SDS011;3986;41.884;23.466;2022-12-29T00:51:59;145.63;;;125.47;;
7881;SDS011;3986;41.884;23.466;2022-12-29T00:54:28;139.60;;;116.17;;
7881;SDS011;3986;41.884;23.466;2022-12-29T00:56:57;131.33;;;109.93;;
7881;SDS011;3986;41.884;23.466;2022-12-29T00:59:24;125.93;;;109.80;;
7881;SDS011;3986;41.884;23.466;2022-12-29T01:01:51;138.87;;;111.53;;
7881;SDS011;3986;41.884;23.466;2022-12-29T01:04:20;140.43;;;111.57;;
7881;SDS011;3986;41.884;23.466;2022-12-29T01:06:48;152.43;;;127.03;;
7881;SDS011;3986;41.884;23.466;2022-12-29T01:09:16;141.43;;;118.93;;
7881;SDS011;3986;41.884;23.466;2022-12-29T01:12:00;127.17;;;110.87;;
7881;SDS011;3986;41.884;23.466;2022-12-29T01:14:28;120.03;;;102.27;;
7881;SDS011;3986;41.884;23.466;2022-12-29T01:16:55;125.10;;;98.97;;
7881;SDS011;3986;41.884;23.466;2022-12-29T01:19:24;130.27;;;104.90;;
7881;SDS011;3986;41.884;23.466;2022-12-29T01:21:51;152.03;;;121.23;;
7881;SDS011;3986;41.884;23.466;2022-12-29T01:24:18;153.90;;;125.40;;
7881;SDS011;3986;41.884;23.466;2022-12-29T01:26:46;162.03;;;128.67;;
7881;SDS011;3986;41.884;23.466;2022-12-29T01:29:14;151.83;;;129.07;;
7881;SDS011;3986;41.884;23.466;2022-12-29T01:31:41;162.13;;;130.33;;
7881;SDS011;3986;41.884;23.466;2022-12-29T01:34:08;142.93;;;117.83;;
7881;SDS011;3986;41.884;23.466;2022-12-29T01:36:36;128.70;;;108.17;;
7881;SDS011;3986;41.884;23.466;2022-12-29T01:39:02;156.40;;;130.20;;
7881;SDS011;3986;41.884;23.466;2022-12-29T01:41:29;135.17;;;114.63;;
7881;SDS011;3986;41.884;23.466;2022-12-29T01:43:57;145.23;;;116.53;;
7881;SDS011;3986;41.884;23.466;2022-12-29T01:46:26;183.67;;;142.43;;
7881;SDS011;3986;41.884;23.466;2022-12-29T01:48:58;159.80;;;133.53;;
7881;SDS011;3986;41.884;23.466;2022-12-29T01:51:31;199.47;;;157.80;;
7881;SDS011;3986;41.884;23.466;2022-12-29T01:54:02;174.50;;;146.30;;
7881;SDS011;3986;41.884;23.466;2022-12-29T01:56:34;172.23;;;144.03;;
7881;SDS011;3986;41.884;23.466;2022-12-29T01:59:01;164.43;;;133.60;;
7881;SDS011;3986;41.884;23.466;2022-12-29T02:01:31;171.10;;;137.07;;
7881;SDS011;3986;41.884;23.466;2022-12-29T02:03:58;168.30;;;134.00;;
7881;SDS011;3986;41.884;23.466;2022-12-29T02:06:26;188.87;;;157.53;;
7881;SDS011;3986;41.884;23.466;2022-12-29T02:08:55;217.00;;;167.63;;
7881;SDS011;3986;41.884;23.466;2022-12-29T02:11:25;246.30;;;204.10;;
7881;SDS011;3986;41.884;23.466;2022-12-29T02:13:52;248.23;;;210.50;;
7881;SDS011;3986;41.884;23.466;2022-12-29T02:16:28;283.70;;;239.73;;
7881;SDS011;3986;41.884;23.466;2022-12-29T02:19:05;268.00;;;229.17;;
7881;SDS011;3986;41.884;23.466;2022-12-29T02:21:53;265.97;;;221.40;;
7881;SDS011;3986;41.884;23.466;2022-12-29T02:27:40;247.03;;;201.33;;
7881;SDS011;3986;41.884;23.466;2022-12-29T02:30:39;241.40;;;195.43;;
7881;SDS011;3986;41.884;23.466;2022-12-29T02:33:12;240.50;;;200.30;;
7881;SDS011;3986;41.884;23.466;2022-12-29T02:35:49;236.53;;;190.67;;
7881;SDS011;3986;41.884;23.466;2022-12-29T02:38:24;261.47;;;207.80;;
7881;SDS011;3986;41.884;23.466;2022-12-29T02:40:58;224.13;;;183.70;;
7881;SDS011;3986;41.884;23.466;2022-12-29T02:43:33;215.40;;;184.43;;
7881;SDS011;3986;41.884;23.466;2022-12-29T02:46:08;220.57;;;181.67;;
7881;SDS011;3986;41.884;23.466;2022-12-29T02:48:41;227.70;;;190.13;;
7881;SDS011;3986;41.884;23.466;2022-12-29T02:51:12;211.03;;;172.77;;
7881;SDS011;3986;41.884;23.466;2022-12-29T02:53:44;215.90;;;171.93;;
7881;SDS011;3986;41.884;23.466;2022-12-29T02:56:30;206.57;;;165.10;;
7881;SDS011;3986;41.884;23.466;2022-12-29T02:58:56;197.13;;;160.90;;
7881;SDS011;3986;41.884;23.466;2022-12-29T03:01:27;197.83;;;160.20;;
7881;SDS011;3986;41.884;23.466;2022-12-29T03:04:05;191.87;;;160.30;;
7881;SDS011;3986;41.884;23.466;2022-12-29T03:06:46;190.17;;;160.70;;
7881;SDS011;3986;41.884;23.466;2022-12-29T03:09:20;239.60;;;192.00;;
7881;SDS011;3986;41.884;23.466;2022-12-29T03:11:59;192.83;;;154.30;;
7881;SDS011;3986;41.884;23.466;2022-12-29T03:14:37;179.67;;;148.87;;
7881;SDS011;3986;41.884;23.466;2022-12-29T03:17:36;165.60;;;139.80;;
7881;SDS011;3986;41.884;23.466;2022-12-29T03:20:10;165.70;;;134.00;;
7881;SDS011;3986;41.884;23.466;2022-12-29T03:22:44;175.30;;;139.10;;
7881;SDS011;3986;41.884;23.466;2022-12-29T03:25:14;181.97;;;152.67;;
7881;SDS011;3986;41.884;23.466;2022-12-29T03:27:44;173.20;;;141.63;;
7881;SDS011;3986;41.884;23.466;2022-12-29T03:30:15;172.67;;;139.03;;
7881;SDS011;3986;41.884;23.466;2022-12-29T03:32:44;157.60;;;131.87;;
7881;SDS011;3986;41.884;23.466;2022-12-29T03:35:14;165.43;;;130.67;;
7881;SDS011;3986;41.884;23.466;2022-12-29T03:37:44;171.60;;;143.27;;
7881;SDS011;3986;41.884;23.466;2022-12-29T03:40:17;158.57;;;126.10;;
7881;SDS011;3986;41.884;23.466;2022-12-29T03:42:44;170.63;;;136.83;;
7881;SDS011;3986;41.884;23.466;2022-12-29T03:45:13;158.77;;;135.53;;
7881;SDS011;3986;41.884;23.466;2022-12-29T03:47:40;153.43;;;129.90;;
7881;SDS011;3986;41.884;23.466;2022-12-29T03:50:08;156.57;;;130.47;;
7881;SDS011;3986;41.884;23.466;2022-12-29T03:52:37;162.80;;;133.30;;
7881;SDS011;3986;41.884;23.466;2022-12-29T03:55:04;164.70;;;133.10;;
7881;SDS011;3986;41.884;23.466;2022-12-29T03:57:32;164.93;;;133.87;;
7881;SDS011;3986;41.884;23.466;2022-12-29T03:59:58;164.87;;;132.77;;
7881;SDS011;3986;41.884;23.466;2022-12-29T04:02:25;170.57;;;139.50;;
7881;SDS011;3986;41.884;23.466;2022-12-29T04:04:52;186.10;;;143.73;;
7881;SDS011;3986;41.884;23.466;2022-12-29T04:07:20;171.87;;;141.43;;
7881;SDS011;3986;41.884;23.466;2022-12-29T04:09:47;167.27;;;141.50;;
7881;SDS011;3986;41.884;23.466;2022-12-29T04:12:13;180.87;;;146.17;;
7881;SDS011;3986;41.884;23.466;2022-12-29T04:14:40;180.20;;;145.43;;
7881;SDS011;3986;41.884;23.466;2022-12-29T04:17:07;162.30;;;136.57;;
7881;SDS011;3986;41.884;23.466;2022-12-29T04:19:34;168.17;;;136.87;;
7881;SDS011;3986;41.884;23.466;2022-12-29T04:22:00;183.70;;;142.77;;
7881;SDS011;3986;41.884;23.466;2022-12-29T04:24:29;158.77;;;125.07;;
7881;SDS011;3986;41.884;23.466;2022-12-29T04:26:55;157.83;;;118.97;;
7881;SDS011;3986;41.884;23.466;2022-12-29T04:29:22;143.07;;;117.93;;
7881;SDS011;3986;41.884;23.466;2022-12-29T04:31:49;133.97;;;101.70;;
7881;SDS011;3986;41.884;23.466;2022-12-29T04:34:16;110.13;;;87.43;;
7881;SDS011;3986;41.884;23.466;2022-12-29T04:36:43;100.13;;;80.13;;
7881;SDS011;3986;41.884;23.466;2022-12-29T04:39:09;111.50;;;82.87;;
7881;SDS011;3986;41.884;23.466;2022-12-29T04:41:37;111.33;;;82.90;;
7881;SDS011;3986;41.884;23.466;2022-12-29T04:44:04;103.93;;;74.67;;
7881;SDS011;3986;41.884;23.466;2022-12-29T04:46:31;138.13;;;98.33;;
7881;SDS011;3986;41.884;23.466;2022-12-29T04:48:58;165.43;;;114.00;;
7881;SDS011;3986;41.884;23.466;2022-12-29T04:51:29;144.67;;;92.20;;
7881;SDS011;3986;41.884;23.466;2022-12-29T04:53:56;121.93;;;79.23;;
7881;SDS011;3986;41.884;23.466;2022-12-29T04:56:23;121.20;;;79.93;;
7881;SDS011;3986;41.884;23.466;2022-12-29T04:58:51;104.60;;;71.87;;
7881;SDS011;3986;41.884;23.466;2022-12-29T05:01:18;100.67;;;72.27;;
7881;SDS011;3986;41.884;23.466;2022-12-29T05:03:44;142.80;;;90.70;;
7881;SDS011;3986;41.884;23.466;2022-12-29T05:06:11;141.63;;;98.30;;
7881;SDS011;3986;41.884;23.466;2022-12-29T05:08:38;126.97;;;83.90;;
7881;SDS011;3986;41.884;23.466;2022-12-29T05:11:05;173.40;;;116.77;;
7881;SDS011;3986;41.884;23.466;2022-12-29T05:13:31;137.63;;;98.03;;
7881;SDS011;3986;41.884;23.466;2022-12-29T05:15:59;135.07;;;99.27;;
7881;SDS011;3986;41.884;23.466;2022-12-29T05:18:26;152.77;;;104.53;;
7881;SDS011;3986;41.884;23.466;2022-12-29T05:20:53;130.17;;;92.73;;
7881;SDS011;3986;41.884;23.466;2022-12-29T05:23:20;116.60;;;86.07;;
7881;SDS011;3986;41.884;23.466;2022-12-29T05:25:46;101.87;;;76.87;;
7881;SDS011;3986;41.884;23.466;2022-12-29T05:28:13;102.87;;;75.77;;
7881;SDS011;3986;41.884;23.466;2022-12-29T05:30:40;105.83;;;76.00;;
7881;SDS011;3986;41.884;23.466;2022-12-29T05:33:09;123.23;;;87.30;;
7881;SDS011;3986;41.884;23.466;2022-12-29T05:35:36;135.17;;;90.00;;
7881;SDS011;3986;41.884;23.466;2022-12-29T05:38:03;136.43;;;101.20;;
7881;SDS011;3986;41.884;23.466;2022-12-29T05:40:30;149.47;;;103.50;;
7881;SDS011;3986;41.884;23.466;2022-12-29T05:42:56;187.83;;;137.90;;
7881;SDS011;3986;41.884;23.466;2022-12-29T05:45:23;188.00;;;138.70;;
7881;SDS011;3986;41.884;23.466;2022-12-29T05:47:50;191.07;;;141.10;;
7881;SDS011;3986;41.884;23.466;2022-12-29T05:50:18;199.27;;;158.83;;
7881;SDS011;3986;41.884;23.466;2022-12-29T05:52:45;248.33;;;184.83;;
7881;SDS011;3986;41.884;23.466;2022-12-29T05:55:12;359.43;;;264.27;;
7881;SDS011;3986;41.884;23.466;2022-12-29T05:57:39;301.73;;;212.83;;
7881;SDS011;3986;41.884;23.466;2022-12-29T06:00:06;257.80;;;177.50;;
7881;SDS011;3986;41.884;23.466;2022-12-29T06:02:34;212.47;;;146.33;;
7881;SDS011;3986;41.884;23.466;2022-12-29T06:05:01;195.20;;;139.63;;
7881;SDS011;3986;41.884;23.466;2022-12-29T06:07:29;156.63;;;118.27;;
7881;SDS011;3986;41.884;23.466;2022-12-29T06:09:56;156.90;;;116.70;;
7881;SDS011;3986;41.884;23.466;2022-12-29T06:12:23;161.33;;;122.50;;
7881;SDS011;3986;41.884;23.466;2022-12-29T06:14:49;150.83;;;112.13;;
7881;SDS011;3986;41.884;23.466;2022-12-29T06:17:16;119.37;;;90.30;;
7881;SDS011;3986;41.884;23.466;2022-12-29T06:19:43;128.57;;;93.90;;
7881;SDS011;3986;41.884;23.466;2022-12-29T06:22:10;147.80;;;102.97;;
7881;SDS011;3986;41.884;23.466;2022-12-29T06:24:38;116.43;;;79.47;;
7881;SDS011;3986;41.884;23.466;2022-12-29T06:27:05;132.17;;;86.60;;
7881;SDS011;3986;41.884;23.466;2022-12-29T06:29:32;117.87;;;85.37;;
7881;SDS011;3986;41.884;23.466;2022-12-29T06:32:01;135.77;;;96.63;;
7881;SDS011;3986;41.884;23.466;2022-12-29T06:34:28;146.83;;;102.33;;
7881;SDS011;3986;41.884;23.466;2022-12-29T06:36:54;162.40;;;109.57;;
7881;SDS011;3986;41.884;23.466;2022-12-29T06:39:21;154.70;;;107.67;;
7881;SDS011;3986;41.884;23.466;2022-12-29T06:41:49;206.33;;;125.50;;
7881;SDS011;3986;41.884;23.466;2022-12-29T06:44:18;165.57;;;113.90;;
7881;SDS011;3986;41.884;23.466;2022-12-29T06:46:45;174.57;;;116.97;;
7881;SDS011;3986;41.884;23.466;2022-12-29T06:49:12;171.33;;;121.17;;
7881;SDS011;3986;41.884;23.466;2022-12-29T06:51:38;184.63;;;126.63;;
7881;SDS011;3986;41.884;23.466;2022-12-29T06:54:05;173.90;;;120.43;;
7881;SDS011;3986;41.884;23.466;2022-12-29T06:56:32;207.70;;;140.33;;
7881;SDS011;3986;41.884;23.466;2022-12-29T06:59:00;213.97;;;161.03;;
7881;SDS011;3986;41.884;23.466;2022-12-29T07:01:27;232.23;;;174.80;;
7881;SDS011;3986;41.884;23.466;2022-12-29T07:03:54;224.03;;;157.70;;
7881;SDS011;3986;41.884;23.466;2022-12-29T07:06:21;196.87;;;133.00;;
7881;SDS011;3986;41.884;23.466;2022-12-29T07:08:47;229.63;;;140.30;;
7881;SDS011;3986;41.884;23.466;2022-12-29T07:11:14;252.90;;;161.67;;
7881;SDS011;3986;41.884;23.466;2022-12-29T07:13:41;219.90;;;152.57;;
7881;SDS011;3986;41.884;23.466;2022-12-29T07:16:09;204.37;;;142.77;;
7881;SDS011;3986;41.884;23.466;2022-12-29T07:18:36;198.03;;;142.80;;
7881;SDS011;3986;41.884;23.466;2022-12-29T07:21:04;188.30;;;135.27;;
7881;SDS011;3986;41.884;23.466;2022-12-29T07:23:30;200.73;;;141.13;;
7881;SDS011;3986;41.884;23.466;2022-12-29T07:26:00;239.90;;;155.40;;
7881;SDS011;3986;41.884;23.466;2022-12-29T07:28:28;195.80;;;149.17;;
7881;SDS011;3986;41.884;23.466;2022-12-29T07:30:55;243.37;;;173.40;;
7881;SDS011;3986;41.884;23.466;2022-12-29T07:33:23;216.63;;;156.70;;
7881;SDS011;3986;41.884;23.466;2022-12-29T07:35:50;282.50;;;175.50;;
7881;SDS011;3986;41.884;23.466;2022-12-29T07:38:17;232.13;;;163.43;;
7881;SDS011;3986;41.884;23.466;2022-12-29T07:40:44;294.63;;;184.93;;
7881;SDS011;3986;41.884;23.466;2022-12-29T07:43:10;250.23;;;152.07;;
7881;SDS011;3986;41.884;23.466;2022-12-29T07:45:37;234.43;;;153.43;;
7881;SDS011;3986;41.884;23.466;2022-12-29T07:48:05;219.83;;;149.43;;
7881;SDS011;3986;41.884;23.466;2022-12-29T07:50:34;251.60;;;150.33;;
7881;SDS011;3986;41.884;23.466;2022-12-29T07:53:01;259.37;;;171.63;;
7881;SDS011;3986;41.884;23.466;2022-12-29T07:55:28;334.27;;;181.20;;
7881;SDS011;3986;41.884;23.466;2022-12-29T07:57:55;213.37;;;162.13;;
7881;SDS011;3986;41.884;23.466;2022-12-29T08:00:22;232.83;;;159.83;;
7881;SDS011;3986;41.884;23.466;2022-12-29T08:02:49;227.43;;;155.47;;
7881;SDS011;3986;41.884;23.466;2022-12-29T08:05:16;236.17;;;156.30;;
7881;SDS011;3986;41.884;23.466;2022-12-29T08:07:44;274.37;;;177.43;;
7881;SDS011;3986;41.884;23.466;2022-12-29T08:10:12;297.77;;;197.83;;
7881;SDS011;3986;41.884;23.466;2022-12-29T08:12:40;296.30;;;200.67;;
7881;SDS011;3986;41.884;23.466;2022-12-29T08:15:08;364.77;;;240.23;;
7881;SDS011;3986;41.884;23.466;2022-12-29T08:17:36;353.90;;;222.70;;
7881;SDS011;3986;41.884;23.466;2022-12-29T08:20:03;326.87;;;226.97;;
7881;SDS011;3986;41.884;23.466;2022-12-29T08:22:31;252.20;;;189.83;;
7881;SDS011;3986;41.884;23.466;2022-12-29T08:24:59;292.30;;;206.13;;
7881;SDS011;3986;41.884;23.466;2022-12-29T08:27:26;304.07;;;206.37;;
7881;SDS011;3986;41.884;23.466;2022-12-29T08:29:52;310.50;;;236.70;;
7881;SDS011;3986;41.884;23.466;2022-12-29T08:32:19;252.37;;;191.47;;
7881;SDS011;3986;41.884;23.466;2022-12-29T08:34:46;310.33;;;215.10;;
7881;SDS011;3986;41.884;23.466;2022-12-29T08:37:13;267.87;;;203.67;;
7881;SDS011;3986;41.884;23.466;2022-12-29T08:39:40;254.40;;;186.90;;
7881;SDS011;3986;41.884;23.466;2022-12-29T08:42:08;245.87;;;195.47;;
7881;SDS011;3986;41.884;23.466;2022-12-29T08:44:35;311.80;;;248.20;;
7881;SDS011;3986;41.884;23.466;2022-12-29T08:47:01;333.77;;;262.83;;
7881;SDS011;3986;41.884;23.466;2022-12-29T08:49:28;321.27;;;247.57;;
7881;SDS011;3986;41.884;23.466;2022-12-29T08:51:55;291.00;;;229.90;;
7881;SDS011;3986;41.884;23.466;2022-12-29T08:54:22;272.80;;;216.07;;
7881;SDS011;3986;41.884;23.466;2022-12-29T08:56:48;258.13;;;188.90;;
7881;SDS011;3986;41.884;23.466;2022-12-29T08:59:17;256.13;;;194.73;;
7881;SDS011;3986;41.884;23.466;2022-12-29T09:01:43;300.63;;;217.13;;
7881;SDS011;3986;41.884;23.466;2022-12-29T09:04:10;311.00;;;228.33;;
7881;SDS011;3986;41.884;23.466;2022-12-29T09:06:37;294.70;;;208.47;;
7881;SDS011;3986;41.884;23.466;2022-12-29T09:09:04;303.77;;;216.00;;
7881;SDS011;3986;41.884;23.466;2022-12-29T09:11:31;260.97;;;199.93;;
7881;SDS011;3986;41.884;23.466;2022-12-29T09:13:57;223.03;;;170.20;;
7881;SDS011;3986;41.884;23.466;2022-12-29T09:16:26;221.50;;;176.70;;
7881;SDS011;3986;41.884;23.466;2022-12-29T09:18:53;256.13;;;200.30;;
7881;SDS011;3986;41.884;23.466;2022-12-29T09:21:19;313.63;;;246.47;;
7881;SDS011;3986;41.884;23.466;2022-12-29T09:23:47;310.60;;;245.37;;
7881;SDS011;3986;41.884;23.466;2022-12-29T09:26:14;306.00;;;234.30;;
7881;SDS011;3986;41.884;23.466;2022-12-29T09:28:41;303.23;;;227.63;;
7881;SDS011;3986;41.884;23.466;2022-12-29T09:31:09;251.77;;;191.60;;
7881;SDS011;3986;41.884;23.466;2022-12-29T09:33:37;273.20;;;236.87;;
7881;SDS011;3986;41.884;23.466;2022-12-29T09:36:04;283.83;;;252.63;;
7881;SDS011;3986;41.884;23.466;2022-12-29T09:38:31;299.43;;;254.07;;
7881;SDS011;3986;41.884;23.466;2022-12-29T09:40:59;293.10;;;215.97;;
7881;SDS011;3986;41.884;23.466;2022-12-29T09:46:24;244.53;;;191.80;;
7881;SDS011;3986;41.884;23.466;2022-12-29T09:48:55;282.00;;;215.20;;
7881;SDS011;3986;41.884;23.466;2022-12-29T09:51:32;231.93;;;196.30;;
7881;SDS011;3986;41.884;23.466;2022-12-29T09:54:02;234.33;;;194.20;;
7881;SDS011;3986;41.884;23.466;2022-12-29T09:56:44;224.77;;;190.73;;
7881;SDS011;3986;41.884;23.466;2022-12-29T09:59:13;216.93;;;193.98;;
7881;SDS011;3986;41.884;23.466;2022-12-29T10:01:44;245.57;;;218.77;;
7881;SDS011;3986;41.884;23.466;2022-12-29T10:04:19;272.67;;;243.23;;
7881;SDS011;3986;41.884;23.466;2022-12-29T10:06:46;268.50;;;241.57;;
7881;SDS011;3986;41.884;23.466;2022-12-29T10:09:22;250.23;;;223.38;;
7881;SDS011;3986;41.884;23.466;2022-12-29T10:12:01;215.43;;;193.63;;
7881;SDS011;3986;41.884;23.466;2022-12-29T10:14:45;188.20;;;164.98;;
7881;SDS011;3986;41.884;23.466;2022-12-29T10:17:22;153.13;;;137.95;;
7881;SDS011;3986;41.884;23.466;2022-12-29T10:20:00;155.73;;;130.82;;
7881;SDS011;3986;41.884;23.466;2022-12-29T10:22:49;149.77;;;125.78;;
7881;SDS011;3986;41.884;23.466;2022-12-29T10:25:33;173.10;;;138.95;;
7881;SDS011;3986;41.884;23.466;2022-12-29T10:28:05;186.27;;;141.50;;
7881;SDS011;3986;41.884;23.466;2022-12-29T10:30:42;180.23;;;130.20;;
7881;SDS011;3986;41.884;23.466;2022-12-29T10:33:11;142.20;;;124.60;;
7881;SDS011;3986;41.884;23.466;2022-12-29T10:35:44;145.35;;;110.13;;
7881;SDS011;3986;41.884;23.466;2022-12-29T10:38:15;128.05;;;89.75;;
7881;SDS011;3986;41.884;23.466;2022-12-29T10:40:49;146.15;;;108.18;;
7881;SDS011;3986;41.884;23.466;2022-12-29T10:43:22;109.15;;;97.30;;
7881;SDS011;3986;41.884;23.466;2022-12-29T10:45:51;120.95;;;68.80;;
7881;SDS011;3986;41.884;23.466;2022-12-29T10:48:20;64.43;;;47.88;;
7881;SDS011;3986;41.884;23.466;2022-12-29T10:50:50;68.13;;;53.28;;
7881;SDS011;3986;41.884;23.466;2022-12-29T10:53:21;75.28;;;45.88;;
7881;SDS011;3986;41.884;23.466;2022-12-29T10:55:51;70.57;;;42.25;;
7881;SDS011;3986;41.884;23.466;2022-12-29T10:58:19;54.35;;;34.50;;
7881;SDS011;3986;41.884;23.466;2022-12-29T11:00:49;58.72;;;28.20;;
7881;SDS011;3986;41.884;23.466;2022-12-29T11:03:35;50.90;;;33.45;;
7881;SDS011;3986;41.884;23.466;2022-12-29T11:06:26;83.03;;;30.13;;
7881;SDS011;3986;41.884;23.466;2022-12-29T11:08:56;90.20;;;39.53;;
7881;SDS011;3986;41.884;23.466;2022-12-29T11:11:26;78.05;;;35.70;;
7881;SDS011;3986;41.884;23.466;2022-12-29T11:13:58;59.47;;;26.55;;
7881;SDS011;3986;41.884;23.466;2022-12-29T11:16:30;53.00;;;20.42;;
7881;SDS011;3986;41.884;23.466;2022-12-29T11:18:59;64.97;;;20.90;;
7881;SDS011;3986;41.884;23.466;2022-12-29T11:21:30;76.00;;;24.05;;
7881;SDS011;3986;41.884;23.466;2022-12-29T11:24:00;52.83;;;22.27;;
7881;SDS011;3986;41.884;23.466;2022-12-29T11:26:28;67.50;;;27.83;;
7881;SDS011;3986;41.884;23.466;2022-12-29T11:31:54;61.97;;;21.65;;
7881;SDS011;3986;41.884;23.466;2022-12-29T11:34:24;59.75;;;26.67;;
7881;SDS011;3986;41.884;23.466;2022-12-29T11:36:57;66.82;;;29.80;;
7881;SDS011;3986;41.884;23.466;2022-12-29T11:39:30;52.35;;;25.77;;
7881;SDS011;3986;41.884;23.466;2022-12-29T11:42:00;107.40;;;32.03;;
7881;SDS011;3986;41.884;23.466;2022-12-29T11:44:29;84.93;;;26.33;;
7881;SDS011;3986;41.884;23.466;2022-12-29T11:47:12;54.17;;;19.52;;
7881;SDS011;3986;41.884;23.466;2022-12-29T11:49:48;81.95;;;21.30;;
7881;SDS011;3986;41.884;23.466;2022-12-29T11:52:17;131.82;;;26.08;;
7881;SDS011;3986;41.884;23.466;2022-12-29T11:54:48;91.93;;;23.27;;
7881;SDS011;3986;41.884;23.466;2022-12-29T11:57:16;85.22;;;21.08;;
7881;SDS011;3986;41.884;23.466;2022-12-29T11:59:48;73.95;;;24.75;;
7881;SDS011;3986;41.884;23.466;2022-12-29T12:02:23;52.05;;;22.63;;
7881;SDS011;3986;41.884;23.466;2022-12-29T12:04:58;118.75;;;28.40;;
7881;SDS011;3986;41.884;23.466;2022-12-29T12:07:34;59.03;;;27.15;;
7881;SDS011;3986;41.884;23.466;2022-12-29T12:10:06;63.22;;;25.63;;
7881;SDS011;3986;41.884;23.466;2022-12-29T12:12:43;69.40;;;37.13;;
7881;SDS011;3986;41.884;23.466;2022-12-29T12:15:15;43.90;;;28.48;;
7881;SDS011;3986;41.884;23.466;2022-12-29T12:17:47;76.75;;;28.92;;
7881;SDS011;3986;41.884;23.466;2022-12-29T12:20:18;54.80;;;35.28;;
7881;SDS011;3986;41.884;23.466;2022-12-29T12:22:52;60.25;;;26.92;;
7881;SDS011;3986;41.884;23.466;2022-12-29T12:25:27;53.88;;;30.98;;
7881;SDS011;3986;41.884;23.466;2022-12-29T12:28:00;61.78;;;29.20;;
7881;SDS011;3986;41.884;23.466;2022-12-29T12:30:36;66.57;;;29.45;;
7881;SDS011;3986;41.884;23.466;2022-12-29T12:33:10;61.58;;;28.75;;
7881;SDS011;3986;41.884;23.466;2022-12-29T12:35:44;57.70;;;31.70;;
7881;SDS011;3986;41.884;23.466;2022-12-29T12:38:21;79.63;;;37.97;;
7881;SDS011;3986;41.884;23.466;2022-12-29T12:40:58;61.50;;;28.95;;
7881;SDS011;3986;41.884;23.466;2022-12-29T12:43:37;44.30;;;24.58;;
7881;SDS011;3986;41.884;23.466;2022-12-29T12:46:14;78.20;;;19.35;;
7881;SDS011;3986;41.884;23.466;2022-12-29T12:48:58;59.38;;;28.55;;
7881;SDS011;3986;41.884;23.466;2022-12-29T12:51:36;41.33;;;15.68;;
7881;SDS011;3986;41.884;23.466;2022-12-29T12:54:17;67.57;;;22.73;;
7881;SDS011;3986;41.884;23.466;2022-12-29T12:56:59;49.40;;;17.00;;
7881;SDS011;3986;41.884;23.466;2022-12-29T12:59:36;79.28;;;20.88;;
7881;SDS011;3986;41.884;23.466;2022-12-29T13:02:25;44.47;;;19.27;;
7881;SDS011;3986;41.884;23.466;2022-12-29T13:05:04;79.70;;;25.17;;
7881;SDS011;3986;41.884;23.466;2022-12-29T13:07:50;53.28;;;21.33;;
7881;SDS011;3986;41.884;23.466;2022-12-29T13:10:38;68.60;;;22.13;;
7881;SDS011;3986;41.884;23.466;2022-12-29T13:13:19;80.55;;;21.38;;
7881;SDS011;3986;41.884;23.466;2022-12-29T13:16:00;63.00;;;20.23;;
7881;SDS011;3986;41.884;23.466;2022-12-29T13:18:34;63.83;;;19.27;;
7881;SDS011;3986;41.884;23.466;2022-12-29T13:21:10;60.63;;;18.42;;
7881;SDS011;3986;41.884;23.466;2022-12-29T13:23:49;46.50;;;18.58;;
7881;SDS011;3986;41.884;23.466;2022-12-29T13:26:24;74.10;;;18.08;;
7881;SDS011;3986;41.884;23.466;2022-12-29T13:28:58;96.03;;;19.63;;
7881;SDS011;3986;41.884;23.466;2022-12-29T13:31:32;55.33;;;19.38;;
7881;SDS011;3986;41.884;23.466;2022-12-29T13:34:10;67.13;;;24.23;;
7881;SDS011;3986;41.884;23.466;2022-12-29T13:36:48;61.17;;;20.60;;
7881;SDS011;3986;41.884;23.466;2022-12-29T13:39:21;57.33;;;18.10;;
7881;SDS011;3986;41.884;23.466;2022-12-29T13:41:53;61.78;;;19.73;;
7881;SDS011;3986;41.884;23.466;2022-12-29T13:44:21;62.03;;;16.73;;
7881;SDS011;3986;41.884;23.466;2022-12-29T13:46:50;92.13;;;26.70;;
7881;SDS011;3986;41.884;23.466;2022-12-29T13:49:19;69.07;;;20.63;;
7881;SDS011;3986;41.884;23.466;2022-12-29T13:51:49;62.65;;;20.05;;
7881;SDS011;3986;41.884;23.466;2022-12-29T13:54:23;57.78;;;21.00;;
7881;SDS011;3986;41.884;23.466;2022-12-29T13:57:02;70.93;;;19.40;;
7881;SDS011;3986;41.884;23.466;2022-12-29T13:59:36;55.85;;;18.00;;
7881;SDS011;3986;41.884;23.466;2022-12-29T14:02:17;60.28;;;20.88;;
7881;SDS011;3986;41.884;23.466;2022-12-29T14:05:00;46.30;;;19.85;;
7881;SDS011;3986;41.884;23.466;2022-12-29T14:07:29;73.43;;;39.03;;
7881;SDS011;3986;41.884;23.466;2022-12-29T14:10:03;71.72;;;38.53;;
7881;SDS011;3986;41.884;23.466;2022-12-29T14:12:34;83.10;;;36.20;;
7881;SDS011;3986;41.884;23.466;2022-12-29T14:15:05;78.70;;;36.72;;
7881;SDS011;3986;41.884;23.466;2022-12-29T14:17:41;74.37;;;49.60;;
7881;SDS011;3986;41.884;23.466;2022-12-29T14:20:17;84.80;;;51.87;;
7881;SDS011;3986;41.884;23.466;2022-12-29T14:22:55;80.83;;;46.53;;
7881;SDS011;3986;41.884;23.466;2022-12-29T14:28:24;82.33;;;39.83;;
7881;SDS011;3986;41.884;23.466;2022-12-29T14:30:54;75.50;;;43.00;;
7881;SDS011;3986;41.884;23.466;2022-12-29T14:33:22;67.67;;;39.20;;
7881;SDS011;3986;41.884;23.466;2022-12-29T14:35:52;63.67;;;36.37;;
7881;SDS011;3986;41.884;23.466;2022-12-29T14:38:23;56.87;;;45.30;;
7881;SDS011;3986;41.884;23.466;2022-12-29T14:43:54;80.90;;;44.30;;
7881;SDS011;3986;41.884;23.466;2022-12-29T14:46:25;69.87;;;48.73;;
7881;SDS011;3986;41.884;23.466;2022-12-29T14:49:08;102.43;;;58.57;;
7881;SDS011;3986;41.884;23.466;2022-12-29T14:51:43;98.50;;;63.90;;